Time;durP1;ratioP1;P1;durP2;ratioP2;P2;SDS_P1;SDS_P2;PMS_P1;PMS_P2;Temp;Humidity;BMP_temperature;BMP_pressure;BME280_temperature;BME280_humidity;BME280_pressure;Samples;Min_cycle;Max_cycle;Signal;HPM_P1;HPM_P2
2023/10/07 00:01:01;;;;;;;12.70;5.60;;;;;;;15.87;76.83;101138.97;5033702;28;20282;-74
2023/10/07 00:03:30;;;;;;;11.83;5.53;;;;;;;15.87;76.97;101138.13;5033357;28;20218;-74
2023/10/07 00:06:01;;;;;;;8.17;5.20;;;;;;;15.86;76.21;101134.56;5033389;28;20207;-74
2023/10/07 00:08:32;;;;;;;10.50;5.37;;;;;;;15.87;77.15;101140.81;5033160;28;20218;-74
2023/10/07 00:11:00;;;;;;;9.83;5.63;;;;;;;15.86;77.01;101131.03;5033350;28;20198;-74
2023/10/07 00:13:31;;;;;;;8.20;5.37;;;;;;;15.84;76.92;101128.53;5032937;28;20584;-74
2023/10/07 00:16:01;;;;;;;12.40;5.87;;;;;;;15.86;77.25;101128.34;5033298;28;20286;-74
2023/10/07 00:18:34;;;;;;;11.37;5.40;;;;;;;15.86;77.09;101134.56;5033310;28;20198;-74
2023/10/07 00:21:05;;;;;;;11.60;5.40;;;;;;;15.85;76.69;101129.38;5034247;28;20219;-73
2023/10/07 00:23:35;;;;;;;8.43;5.37;;;;;;;15.84;77.54;101119.59;5033000;28;20215;-74
2023/10/07 00:26:08;;;;;;;14.87;6.00;;;;;;;15.82;76.96;101125.19;5032953;28;20212;-75
2023/10/07 00:28:36;;;;;;;12.57;5.90;;;;;;;15.80;77.12;101129.06;5033187;28;20297;-74
2023/10/07 00:31:12;;;;;;;9.27;5.77;;;;;;;15.80;77.73;101131.78;5032952;28;20765;-74
2023/10/07 00:33:50;;;;;;;13.30;6.43;;;;;;;15.79;77.26;101132.81;5036833;28;20234;-75
2023/10/07 00:36:41;;;;;;;8.80;5.10;;;;;;;15.79;77.75;101130.13;5037135;28;20226;-74
2023/10/07 00:39:19;;;;;;;12.03;5.70;;;;;;;15.77;77.79;101132.16;5037060;28;20242;-74
2023/10/07 00:41:50;;;;;;;14.50;6.03;;;;;;;15.78;78.24;101136.53;5038252;28;20617;-74
2023/10/07 00:44:22;;;;;;;11.03;6.03;;;;;;;15.75;77.77;101129.66;5036968;28;20317;-74
2023/10/07 00:47:08;;;;;;;11.43;5.80;;;;;;;15.75;77.99;101126.97;5036560;28;20541;-74
2023/10/07 00:49:41;;;;;;;14.40;5.90;;;;;;;15.76;78.02;101125.06;5036904;28;20249;-74
2023/10/07 00:52:14;;;;;;;10.33;5.63;;;;;;;15.77;77.66;101124.06;5037150;28;20192;-74
2023/10/07 00:54:57;;;;;;;11.20;5.23;;;;;;;15.77;77.81;101116.81;5036870;28;20227;-74
2023/10/07 00:57:34;;;;;;;10.63;5.63;;;;;;;15.73;78.21;101121.72;5036729;28;20191;-74
2023/10/07 01:00:29;;;;;;;12.47;5.53;;;;;;;15.76;78.97;101119.66;5036648;28;20217;-74
2023/10/07 01:03:12;;;;;;;9.33;5.33;;;;;;;15.76;78.98;101119.66;5036615;28;20237;-74
2023/10/07 01:05:53;;;;;;;11.17;5.53;;;;;;;15.77;78.47;101116.81;5036255;28;20237;-74
2023/10/07 01:08:27;;;;;;;9.90;5.40;;;;;;;15.76;78.67;101119.66;5036430;28;20232;-74
2023/10/07 01:11:07;;;;;;;10.43;5.90;;;;;;;15.75;78.96;101112.63;5036529;28;20191;-74
2023/10/07 01:13:36;;;;;;;11.20;5.67;;;;;;;15.75;78.43;101118.84;5036040;28;20226;-74
2023/10/07 01:16:07;;;;;;;8.63;5.40;;;;;;;15.72;78.64;101120.03;5036305;28;20210;-74
2023/10/07 01:18:38;;;;;;;12.80;6.00;;;;;;;15.72;78.46;101114.63;5036323;28;20191;-74
2023/10/07 01:21:11;;;;;;;10.00;5.00;;;;;;;15.71;78.85;101115.69;5037141;28;20264;-74
2023/10/07 01:23:44;;;;;;;9.90;4.93;;;;;;;15.72;78.51;101121.91;5036374;28;20250;-74
2023/10/07 01:26:21;;;;;;;8.73;5.40;;;;;;;15.70;79.34;101111.31;5036238;28;20190;-74
2023/10/07 01:28:56;;;;;;;13.37;5.63;;;;;;;15.71;79.64;101118.38;5036098;28;20221;-74
2023/10/07 01:31:24;;;;;;;10.33;5.30;;;;;;;15.72;78.74;101111.94;5036087;28;20195;-74
2023/10/07 01:33:53;;;;;;;9.60;5.07;;;;;;;15.75;79.11;101104.50;5035962;28;20238;-73
2023/10/07 01:36:24;;;;;;;12.77;5.73;;;;;;;15.73;79.19;101100.13;5035946;28;20242;-73
2023/10/07 01:38:55;;;;;;;9.37;5.07;;;;;;;15.71;79.53;101113.00;5036569;28;20284;-73
2023/10/07 01:41:27;;;;;;;9.93;5.53;;;;;;;15.70;79.15;101116.69;5035751;28;20207;-73
2023/10/07 01:43:59;;;;;;;11.40;5.53;;;;;;;15.73;78.93;101115.47;5034927;28;20721;-73
2023/10/07 01:46:30;;;;;;;9.73;5.53;;;;;;;15.72;79.62;101117.34;5035886;28;20188;-74
2023/10/07 01:49:04;;;;;;;10.43;5.40;;;;;;;15.73;79.28;101113.63;5035716;28;20211;-74
2023/10/07 01:51:35;;;;;;;8.93;4.90;;;;;;;15.73;79.02;101116.31;5035631;28;20194;-74
2023/10/07 01:54:08;;;;;;;11.00;5.33;;;;;;;15.75;79.36;101118.84;5035744;28;20222;-74
2023/10/07 01:56:38;;;;;;;10.17;4.77;;;;;;;15.77;79.69;101115.97;5035623;28;20195;-74
2023/10/07 01:59:17;;;;;;;9.83;5.73;;;;;;;15.75;79.44;101102.66;5035549;28;20207;-74
2023/10/07 02:01:58;;;;;;;11.43;5.60;;;;;;;15.76;78.82;101119.66;5035738;28;20217;-74
2023/10/07 02:04:27;;;;;;;8.87;5.30;;;;;;;15.75;79.74;101115.31;5035518;28;20230;-74
2023/10/07 02:06:57;;;;;;;9.50;5.37;;;;;;;15.73;79.71;101100.13;5035448;28;20210;-74
2023/10/07 02:09:29;;;;;;;10.50;5.50;;;;;;;15.72;79.71;101101.16;5035283;28;20230;-74
2023/10/07 02:12:00;;;;;;;10.33;6.10;;;;;;;15.75;79.10;101112.63;5035870;28;20226;-75
2023/10/07 02:14:31;;;;;;;11.60;6.33;;;;;;;15.71;79.25;101110.28;5035296;28;20245;-74
2023/10/07 02:17:00;;;;;;;9.03;5.60;;;;;;;15.72;79.80;101113.81;5035251;28;20656;-74
2023/10/07 02:19:29;;;;;;;10.87;5.80;;;;;;;15.70;80.29;101116.69;5036571;28;20207;-74
2023/10/07 02:22:03;;;;;;;12.23;5.97;;;;;;;15.71;79.98;101117.53;5035138;28;20191;-74
2023/10/07 02:24:34;;;;;;;10.30;5.73;;;;;;;15.71;79.26;101117.53;5034996;28;20235;-74
2023/10/07 02:27:06;;;;;;;12.63;5.90;;;;;;;15.70;79.46;101116.69;5035894;28;20206;-74
2023/10/07 02:29:35;;;;;;;11.47;6.10;;;;;;;15.71;79.64;101112.16;5035105;28;20215;-74
2023/10/07 02:32:12;;;;;;;12.77;6.67;;;;;;;15.71;79.85;101107.59;5035160;28;20665;-73
2023/10/07 02:34:51;;;;;;;12.07;6.57;;;;;;;15.71;79.49;101112.16;5034829;28;20254;-74
2023/10/07 02:37:21;;;;;;;11.20;6.00;;;;;;;15.73;79.33;101110.94;5034536;28;20623;-74
2023/10/07 02:39:56;;;;;;;10.87;5.63;;;;;;;15.70;80.08;101110.47;5035067;28;20203;-74
2023/10/07 02:42:28;;;;;;;11.10;6.00;;;;;;;15.69;80.19;101109.63;5034477;28;20201;-74
2023/10/07 02:45:13;;;;;;;12.70;5.70;;;;;;;15.71;80.13;101106.75;5034390;28;20238;-74
2023/10/07 02:47:43;;;;;;;11.33;6.17;;;;;;;15.70;79.55;101105.06;5034751;28;20274;-74
2023/10/07 02:50:11;;;;;;;8.60;5.87;;;;;;;15.69;79.37;101104.22;5034179;28;20227;-74
2023/10/07 02:52:40;;;;;;;11.67;6.17;;;;;;;15.71;79.87;101101.34;5034561;28;20294;-74
2023/10/07 02:55:29;;;;;;;10.23;5.90;;;;;;;15.69;80.31;101093.41;5033996;28;20234;-74
2023/10/07 02:57:58;;;;;;;14.43;6.40;;;;;;;15.68;80.29;101094.44;5034038;28;20539;-74
2023/10/07 03:00:35;;;;;;;12.47;6.40;;;;;;;15.66;80.30;101077.59;5034013;28;20614;-74
2023/10/07 03:03:20;;;;;;;10.90;6.03;;;;;;;15.64;80.66;101074.25;5034071;28;20557;-74
2023/10/07 03:05:58;;;;;;;11.87;5.90;;;;;;;15.64;80.61;101078.81;5034339;28;20295;-74
2023/10/07 03:11:12;;;;;;;10.27;5.90;;;;;;;15.64;80.55;101084.22;5031935;28;20289;-74
2023/10/07 03:13:45;;;;;;;11.70;6.63;;;;;;;15.64;80.51;101079.66;5034084;28;20234;-74
2023/10/07 03:16:35;;;;;;;11.20;6.03;;;;;;;15.62;80.02;101070.88;5034898;28;20223;-74
2023/10/07 03:19:07;;;;;;;10.77;5.90;;;;;;;15.66;80.79;101077.59;5034103;28;20586;-75
2023/10/07 03:21:55;;;;;;;9.13;5.43;;;;;;;15.66;80.38;101080.28;5034016;28;20195;-75
2023/10/07 03:24:41;;;;;;;9.40;5.77;;;;;;;15.66;80.52;101072.19;5033533;28;20783;-74
2023/10/07 03:27:13;;;;;;;9.60;5.80;;;;;;;15.65;80.77;101067.81;5033977;28;20225;-74
2023/10/07 03:29:58;;;;;;;9.67;5.77;;;;;;;15.65;80.75;101064.31;5033867;28;20218;-74
2023/10/07 03:32:32;;;;;;;9.37;5.87;;;;;;;15.63;81.15;101061.78;5033841;28;20606;-74
2023/10/07 03:35:16;;;;;;;13.87;6.07;;;;;;;15.64;80.76;101059.91;5033725;28;20234;-74
2023/10/07 03:37:45;;;;;;;10.60;5.80;;;;;;;15.64;81.09;101063.47;5033454;28;20646;-74
2023/10/07 03:40:25;;;;;;;13.07;6.47;;;;;;;15.63;80.49;101064.47;5033409;28;20199;-74
2023/10/07 03:42:55;;;;;;;10.57;6.20;;;;;;;15.64;81.13;101068.03;5033692;28;20186;-73
2023/10/07 03:45:27;;;;;;;12.13;6.13;;;;;;;15.64;80.77;101063.47;5033608;28;20645;-74
2023/10/07 03:47:57;;;;;;;9.50;5.90;;;;;;;15.64;81.73;101074.25;5033613;28;20187;-73
2023/10/07 03:50:34;;;;;;;10.33;5.90;;;;;;;15.63;83.54;101069.88;5034425;28;20272;-74
2023/10/07 03:53:05;;;;;;;13.37;6.37;;;;;;;15.55;84.65;101080.75;5033950;28;20198;-74
2023/10/07 03:55:40;;;;;;;19.13;7.27;;;;;;;15.46;84.21;101070.19;5033466;28;20226;-74
2023/10/07 03:58:16;;;;;;;11.90;7.03;;;;;;;15.47;83.50;101066.47;5033501;28;20190;-74
2023/10/07 04:00:46;;;;;;;9.80;7.30;;;;;;;15.42;84.56;101080.50;5033489;28;20237;-74
2023/10/07 04:03:15;;;;;;;10.30;7.17;;;;;;;15.38;85.94;101084.59;5033383;28;20211;-74
2023/10/07 04:05:49;;;;;;;10.93;7.47;;;;;;;15.33;85.91;101081.63;5033162;28;20274;-73
2023/10/07 04:08:18;;;;;;;14.80;8.03;;;;;;;15.31;86.70;101086.34;5039405;28;20271;-74
2023/10/07 04:10:47;;;;;;;14.87;8.17;;;;;;;15.30;86.58;101073.06;5039613;28;20728;-73
2023/10/07 04:13:22;;;;;;;11.67;7.33;;;;;;;15.27;86.75;101081.50;5039899;28;20213;-73
2023/10/07 04:15:57;;;;;;;13.77;8.60;;;;;;;15.23;88.24;101075.66;5039983;28;20565;-74
2023/10/07 04:18:34;;;;;;;16.17;7.67;;;;;;;15.26;87.55;101080.66;5039971;28;20273;-74
2023/10/07 04:21:03;;;;;;;11.53;7.97;;;;;;;15.22;88.51;101072.09;5039695;28;20226;-74
2023/10/07 04:23:32;;;;;;;13.17;8.40;;;;;;;15.16;89.92;101082.78;5039394;28;20750;-74
2023/10/07 04:26:08;;;;;;;15.43;8.70;;;;;;;15.16;89.41;101080.09;5040125;28;20278;-74
2023/10/07 04:28:39;;;;;;;11.20;8.40;;;;;;;15.14;89.95;101071.31;5040036;28;20199;-74
2023/10/07 04:31:10;;;;;;;12.13;8.73;;;;;;;15.01;91.14;101073.78;5039445;28;20703;-74
2023/10/07 04:33:41;;;;;;;13.20;9.57;;;;;;;15.01;91.01;101076.50;5039790;28;20234;-74
2023/10/07 04:36:13;;;;;;;13.27;9.20;;;;;;;15.01;91.51;101071.09;5039791;28;20254;-74
2023/10/07 04:38:56;;;;;;;14.97;9.80;;;;;;;14.95;91.45;101071.84;5039848;28;20195;-73
2023/10/07 04:41:31;;;;;;;14.63;9.83;;;;;;;14.91;91.82;101076.75;5039442;28;20201;-73
2023/10/07 04:44:20;;;;;;;15.20;9.83;;;;;;;14.87;92.75;101074.56;5039616;28;20313;-73
2023/10/07 04:46:57;;;;;;;12.90;10.77;;;;;;;14.88;93.94;101070.88;5039341;28;20569;-74
2023/10/07 04:49:37;;;;;;;16.07;10.97;;;;;;;14.86;93.44;101087.25;5039704;28;20190;-74
2023/10/07 04:52:08;;;;;;;12.33;10.60;;;;;;;14.82;94.52;101069.75;5039401;28;20221;-73
2023/10/07 04:54:41;;;;;;;12.43;11.23;;;;;;;14.82;95.13;101071.59;5039553;28;20338;-74
2023/10/07 04:57:10;;;;;;;13.60;11.67;;;;;;;14.71;95.55;101083.63;5039586;28;20191;-74
2023/10/07 04:59:45;;;;;;;15.10;12.00;;;;;;;14.70;95.87;101080.09;5039289;28;20716;-75
2023/10/07 05:02:15;;;;;;;14.80;12.33;;;;;;;14.68;96.38;101076.75;5039580;28;20218;-74
2023/10/07 05:04:50;;;;;;;14.27;11.97;;;;;;;14.67;96.20;101080.44;5039165;28;20281;-73
2023/10/07 05:07:26;;;;;;;17.87;13.63;;;;;;;14.67;96.84;101066.13;5039539;28;20195;-74
2023/10/07 05:09:56;;;;;;;20.83;13.00;;;;;;;14.73;95.94;101067.28;5039495;28;20276;-74
2023/10/07 05:12:23;;;;;;;14.60;13.00;;;;;;;14.67;96.16;101064.28;5040427;28;20210;-74
2023/10/07 05:14:55;;;;;;;17.33;14.07;;;;;;;14.70;95.88;101068.47;5040160;28;20230;-74
2023/10/07 05:17:23;;;;;;;16.50;12.33;;;;;;;14.76;95.37;101064.25;5039812;28;20245;-74
2023/10/07 05:19:52;;;;;;;14.03;12.53;;;;;;;14.77;95.22;101063.19;5036262;28;20207;-75
2023/10/07 05:22:23;;;;;;;16.47;13.27;;;;;;;14.75;95.31;101073.34;5036473;28;20207;-73
2023/10/07 05:24:57;;;;;;;16.97;12.83;;;;;;;14.77;95.12;101068.59;5036206;28;20304;-73
2023/10/07 05:27:25;;;;;;;15.73;13.40;;;;;;;14.80;94.64;101057.44;5036180;28;20198;-73
2023/10/07 05:29:56;;;;;;;17.07;14.30;;;;;;;14.80;95.18;101060.13;5036033;28;20293;-74
2023/10/07 05:32:25;;;;;;;17.90;13.77;;;;;;;14.79;95.20;101059.31;5035826;28;20241;-74
2023/10/07 05:34:57;;;;;;;21.03;13.70;;;;;;;14.83;95.21;101065.19;5035613;28;20713;-74
2023/10/07 05:37:26;;;;;;;17.73;13.70;;;;;;;14.81;95.03;101059.13;5036025;28;20199;-74
2023/10/07 05:39:54;;;;;;;20.13;13.83;;;;;;;14.86;94.32;101060.28;5035931;28;20276;-75
2023/10/07 05:42:23;;;;;;;16.90;12.90;;;;;;;14.92;94.33;101061.41;5035527;28;20658;-74
2023/10/07 05:44:52;;;;;;;20.27;14.00;;;;;;;14.93;94.50;101055.81;5035554;28;20318;-74
2023/10/07 05:47:23;;;;;;;18.30;13.77;;;;;;;14.97;93.66;101067.94;5035813;28;20211;-74
2023/10/07 05:49:55;;;;;;;17.63;13.73;;;;;;;14.97;93.71;101067.09;5035767;28;20270;-75
2023/10/07 05:52:24;;;;;;;19.00;13.63;;;;;;;14.99;94.11;101067.75;5035418;28;20527;-75
2023/10/07 05:54:56;;;;;;;17.37;14.00;;;;;;;14.99;94.12;101057.81;5035636;28;20226;-74
2023/10/07 05:57:39;;;;;;;21.70;14.57;;;;;;;14.97;94.42;101059.84;5035657;28;20242;-74
2023/10/07 06:00:12;;;;;;;17.23;15.00;;;;;;;14.99;94.41;101056.97;5035614;28;20218;-74
2023/10/07 06:02:45;;;;;;;19.13;14.37;;;;;;;14.99;94.75;101062.38;5035239;28;20685;-75
2023/10/07 06:05:20;;;;;;;17.43;13.70;;;;;;;15.01;94.82;101065.72;5035442;28;20234;-74
2023/10/07 06:07:49;;;;;;;18.30;13.87;;;;;;;15.05;93.96;101069.72;5035481;28;20191;-75
2023/10/07 06:10:22;;;;;;;20.37;14.73;;;;;;;15.03;94.23;101066.38;5035195;28;20206;-74
2023/10/07 06:12:54;;;;;;;17.23;15.23;;;;;;;15.02;94.82;101070.09;5034985;28;20302;-74
2023/10/07 06:15:23;;;;;;;20.83;15.20;;;;;;;15.02;94.60;101070.94;5034923;28;20678;-74
2023/10/07 06:17:53;;;;;;;22.60;16.97;;;;;;;15.04;94.73;101066.19;5035354;28;20326;-75
2023/10/07 06:20:26;;;;;;;19.23;15.50;;;;;;;15.04;93.96;101071.56;5034852;28;20669;-74
2023/10/07 06:22:56;;;;;;;18.87;16.60;;;;;;;15.05;94.40;101078.66;5035071;28;20247;-75
2023/10/07 06:25:30;;;;;;;18.20;16.23;;;;;;;15.07;94.63;101075.75;5034929;28;20242;-74
2023/10/07 06:28:00;;;;;;;22.23;16.80;;;;;;;15.08;94.33;101069.34;5035082;28;20195;-75
2023/10/07 06:30:32;;;;;;;21.83;16.80;;;;;;;15.08;94.34;101072.06;5034844;28;20268;-74
2023/10/07 06:33:03;;;;;;;23.33;17.93;;;;;;;15.08;93.91;101077.44;5034911;28;20253;-75
2023/10/07 06:35:37;;;;;;;21.40;17.97;;;;;;;15.08;94.24;101074.75;5034811;28;20317;-75
2023/10/07 06:38:06;;;;;;;21.43;17.73;;;;;;;15.08;93.90;101067.50;5034868;28;20202;-75
2023/10/07 06:40:35;;;;;;;22.50;18.17;;;;;;;15.10;93.66;101078.13;5034756;28;20237;-74
2023/10/07 06:43:08;;;;;;;24.23;18.27;;;;;;;15.12;93.84;101068.81;5034730;28;20740;-75
2023/10/07 06:45:38;;;;;;;23.53;18.60;;;;;;;15.11;93.76;101056.34;5034643;28;20309;-75
2023/10/07 06:48:09;;;;;;;24.30;18.63;;;;;;;15.12;94.35;101065.28;5034609;28;20211;-65
2023/10/07 06:50:41;;;;;;;22.33;18.73;;;;;;;15.14;93.54;101072.16;5034625;28;20191;-74
2023/10/07 06:53:11;;;;;;;22.27;18.57;;;;;;;15.16;93.60;101077.38;5034537;28;20234;-74
2023/10/07 06:55:44;;;;;;;26.40;19.87;;;;;;;15.14;94.17;101071.31;5034509;28;20226;-74
2023/10/07 06:58:14;;;;;;;22.73;19.17;;;;;;;15.16;93.75;101077.38;5034464;28;20195;-74
2023/10/07 07:00:48;;;;;;;21.50;18.53;;;;;;;15.16;93.64;101072.84;5034444;28;20314;-74
2023/10/07 07:03:18;;;;;;;23.73;19.57;;;;;;;15.15;94.23;101089.19;5034018;28;20637;-74
2023/10/07 07:05:48;;;;;;;25.17;19.90;;;;;;;15.16;94.23;101082.78;5035031;28;20203;-74
2023/10/07 07:08:22;;;;;;;30.30;19.83;;;;;;;15.16;94.34;101085.47;5034178;28;20294;-74
2023/10/07 07:10:55;;;;;;;22.83;18.83;;;;;;;15.18;94.18;101086.13;5034329;28;20190;-74
2023/10/07 07:13:27;;;;;;;25.00;20.30;;;;;;;15.16;94.48;101077.38;5034088;28;20210;-74
2023/10/07 07:16:06;;;;;;;26.77;20.33;;;;;;;15.14;94.39;101087.50;5034119;28;20194;-74
2023/10/07 07:18:40;;;;;;;27.27;20.87;;;;;;;15.14;93.87;101084.81;5033743;28;20281;-74
2023/10/07 07:21:31;;;;;;;28.33;21.60;;;;;;;15.11;94.60;101093.25;5033801;28;20658;-74
2023/10/07 07:24:00;;;;;;;29.40;20.70;;;;;;;15.11;94.07;101095.97;5033821;28;20308;-74
2023/10/07 07:26:30;;;;;;;22.87;19.77;;;;;;;15.14;93.97;101096.44;5033967;28;20242;-72
2023/10/07 07:28:58;;;;;;;29.17;21.67;;;;;;;15.13;94.08;101102.88;5033556;28;20211;-72
2023/10/07 07:31:33;;;;;;;26.87;21.60;;;;;;;15.15;95.02;101105.38;5034321;28;20214;-72
2023/10/07 07:34:20;;;;;;;25.87;20.53;;;;;;;15.16;94.41;101113.28;5033797;28;20222;-73
2023/10/07 07:36:56;;;;;;;32.00;22.73;;;;;;;15.17;94.19;101100.66;5033238;28;20600;-73
2023/10/07 07:39:24;;;;;;;28.07;21.07;;;;;;;15.17;94.59;101087.16;5034012;28;20244;-74
2023/10/07 07:41:56;;;;;;;27.93;22.13;;;;;;;15.19;94.16;101088.66;5033201;28;20297;-73
2023/10/07 07:44:33;;;;;;;26.03;20.37;;;;;;;15.19;94.73;101099.44;5033586;28;20835;-73
2023/10/07 07:47:03;;;;;;;28.57;21.83;;;;;;;15.21;94.23;101093.84;5033731;28;20202;-73
2023/10/07 07:49:38;;;;;;;29.13;22.60;;;;;;;15.21;94.75;101089.31;5033667;28;20233;-73
2023/10/07 07:52:08;;;;;;;26.73;21.83;;;;;;;15.27;94.05;101092.31;5033531;28;20261;-73
2023/10/07 07:54:37;;;;;;;29.30;21.23;;;;;;;15.28;94.32;101091.25;5033628;28;20227;-74
2023/10/07 07:57:07;;;;;;;29.17;21.37;;;;;;;15.30;94.22;101082.00;5033520;28;20238;-73
2023/10/07 07:59:38;;;;;;;29.50;22.07;;;;;;;15.32;94.45;101084.50;5033479;28;20257;-73
2023/10/07 08:02:12;;;;;;;25.40;22.37;;;;;;;15.30;93.98;101078.44;5033452;28;20289;-73
2023/10/07 08:04:46;;;;;;;24.63;21.77;;;;;;;15.30;93.60;101090.09;5033490;28;20227;-67
2023/10/07 08:07:24;;;;;;;25.97;22.03;;;;;;;15.34;94.38;101082.47;5033435;28;20202;-73
2023/10/07 08:09:55;;;;;;;31.90;23.57;;;;;;;15.33;94.27;101103.19;5033413;28;20194;-73
2023/10/07 08:12:29;;;;;;;31.97;23.53;;;;;;;15.36;94.00;101102.84;5033221;28;20284;-73
2023/10/07 08:14:59;;;;;;;29.27;22.97;;;;;;;15.37;94.38;101109.91;5033127;28;20230;-72
2023/10/07 08:17:28;;;;;;;34.13;22.20;;;;;;;15.38;94.24;101108.03;5033289;28;20214;-72
2023/10/07 08:19:58;;;;;;;25.93;22.57;;;;;;;15.38;94.10;101106.19;5033225;28;20203;-72
2023/10/07 08:22:28;;;;;;;26.60;21.37;;;;;;;15.38;94.27;101108.03;5033388;28;20215;-72
2023/10/07 08:25:00;;;;;;;29.23;22.50;;;;;;;15.40;94.86;101104.16;5032774;28;20284;-72
2023/10/07 08:27:44;;;;;;;25.70;21.97;;;;;;;15.42;94.83;101107.50;5033227;28;20191;-72
2023/10/07 08:30:28;;;;;;;31.80;22.80;;;;;;;15.41;93.97;101108.50;5033207;28;20248;-73
2023/10/07 08:32:57;;;;;;;29.00;22.13;;;;;;;15.42;95.14;101112.03;5032734;28;20217;-73
2023/10/07 08:35:27;;;;;;;27.53;21.73;;;;;;;15.43;94.82;101109.19;5033032;28;20626;-72
2023/10/07 08:37:55;;;;;;;26.60;21.93;;;;;;;15.44;94.69;101110.88;5033126;28;20298;-72
2023/10/07 08:40:28;;;;;;;28.67;22.67;;;;;;;15.46;94.64;101106.13;5033101;28;20217;-73
2023/10/07 08:42:58;;;;;;;27.40;21.20;;;;;;;15.46;94.48;101102.56;5032733;28;20191;-73
2023/10/07 08:45:28;;;;;;;25.87;22.50;;;;;;;15.45;94.15;101090.94;5033012;28;20230;-72
2023/10/07 08:48:08;;;;;;;25.83;21.17;;;;;;;15.48;94.35;101090.59;5033041;28;20264;-73
2023/10/07 08:50:49;;;;;;;36.43;22.47;;;;;;;15.49;94.88;101094.97;5033060;28;20194;-73
2023/10/07 08:53:18;;;;;;;31.97;23.17;;;;;;;15.49;94.34;101086.88;5032468;28;20218;-72
2023/10/07 08:55:51;;;;;;;29.03;23.43;;;;;;;15.51;94.38;101076.75;5036391;28;20630;-72
2023/10/07 08:58:25;;;;;;;26.27;22.80;;;;;;;15.52;94.44;101067.63;5036223;28;20532;-72
2023/10/07 09:00:56;;;;;;;24.83;21.37;;;;;;;15.54;94.23;101060.19;5036261;28;20289;-72
2023/10/07 09:03:28;;;;;;;26.63;23.00;;;;;;;15.56;94.00;101071.63;5036425;28;20194;-72
2023/10/07 09:06:06;;;;;;;28.20;22.60;;;;;;;15.59;94.76;101063.16;5036567;28;20255;-72
2023/10/07 09:08:35;;;;;;;27.27;22.60;;;;;;;15.60;94.51;101062.16;5036490;28;20209;-72
2023/10/07 09:11:08;;;;;;;30.97;23.00;;;;;;;15.61;94.45;101068.41;5036446;28;20234;-68
2023/10/07 09:13:38;;;;;;;30.60;23.70;;;;;;;15.63;94.17;101050.97;5036510;28;20234;-74
2023/10/07 09:16:10;;;;;;;26.90;24.00;;;;;;;15.64;93.94;101063.47;5036473;28;20297;-73
2023/10/07 09:18:41;;;;;;;30.33;24.90;;;;;;;15.66;94.40;101061.41;5036007;28;20450;-73
2023/10/07 09:21:18;;;;;;;31.50;24.80;;;;;;;15.68;94.22;101059.34;5035396;28;20199;-73
2023/10/07 09:23:51;;;;;;;30.23;24.03;;;;;;;15.71;94.21;101066.25;5035033;28;20730;-73
2023/10/07 09:26:29;;;;;;;30.53;23.50;;;;;;;15.73;93.74;101056.94;5035512;28;20211;-73
2023/10/07 09:29:06;;;;;;;31.00;25.43;;;;;;;15.73;94.48;101051.53;5035459;28;20213;-73
2023/10/07 09:31:39;;;;;;;30.90;25.30;;;;;;;15.73;94.58;101045.31;5036134;28;20233;-74
2023/10/07 09:34:10;;;;;;;33.73;26.10;;;;;;;15.73;93.64;101048.84;5035987;28;20235;-73
2023/10/07 09:36:41;;;;;;;34.33;26.30;;;;;;;15.76;94.40;101044.06;5036032;28;20191;-73
2023/10/07 09:39:31;;;;;;;35.13;26.90;;;;;;;15.78;94.05;101052.84;5035997;28;20219;-73
2023/10/07 09:42:10;;;;;;;32.10;24.03;;;;;;;15.80;94.26;101048.09;5035988;28;20257;-74
2023/10/07 09:44:38;;;;;;;36.43;27.70;;;;;;;15.82;93.75;101051.47;5035884;28;20222;-74
2023/10/07 09:47:13;;;;;;;34.30;26.53;;;;;;;15.83;92.94;101045.00;5035880;28;20258;-73
2023/10/07 09:49:44;;;;;;;34.33;27.00;;;;;;;15.82;93.54;101055.00;5035840;28;20195;-73
2023/10/07 09:52:17;;;;;;;36.60;27.60;;;;;;;15.83;93.82;101048.56;5036022;28;20206;-73
2023/10/07 09:55:06;;;;;;;37.30;27.57;;;;;;;15.83;93.61;101045.84;5035576;28;20235;-73
2023/10/07 09:57:49;;;;;;;37.17;28.20;;;;;;;15.83;93.76;101045.84;5035667;28;20286;-73
2023/10/07 10:00:40;;;;;;;35.40;28.93;;;;;;;15.85;93.75;101042.97;5035484;28;20292;-73
2023/10/07 10:03:33;;;;;;;38.63;28.27;;;;;;;15.87;93.92;101043.63;5035915;28;20213;-73
2023/10/07 10:06:16;;;;;;;35.13;27.27;;;;;;;15.88;93.60;101053.41;5035048;28;20206;-73
2023/10/07 10:08:59;;;;;;;35.60;28.27;;;;;;;15.91;93.71;101053.03;5035388;28;20227;-73
2023/10/07 10:11:30;;;;;;;34.87;27.00;;;;;;;15.95;93.66;101054.34;5035442;28;20195;-73
2023/10/07 10:14:19;;;;;;;33.87;27.33;;;;;;;15.98;93.75;101059.34;5035218;28;20236;-73
2023/10/07 10:16:54;;;;;;;32.00;25.13;;;;;;;16.03;93.79;101052.34;5035331;28;20202;-73
2023/10/07 10:19:28;;;;;;;28.60;22.13;;;;;;;16.11;92.37;101062.22;5035253;28;20191;-73
2023/10/07 10:22:07;;;;;;;28.33;22.50;;;;;;;16.16;92.32;101057.91;5035257;28;20195;-73
2023/10/07 10:24:41;;;;;;;31.67;22.77;;;;;;;16.17;92.37;101059.59;5034908;28;20310;-73
2023/10/07 10:27:11;;;;;;;28.37;23.27;;;;;;;16.21;92.41;101055.50;5034934;28;20191;-73
2023/10/07 10:29:52;;;;;;;29.03;21.60;;;;;;;16.24;91.90;101056.97;5035090;28;20234;-74
2023/10/07 10:32:29;;;;;;;28.93;21.73;;;;;;;16.30;90.95;101066.22;5035039;28;20191;-73
2023/10/07 10:35:01;;;;;;;29.53;22.87;;;;;;;16.33;91.04;101080.19;5034864;28;20309;-74
2023/10/07 10:37:31;;;;;;;30.40;21.67;;;;;;;16.32;91.75;101073.09;5034946;28;20198;-74
2023/10/07 10:40:14;;;;;;;31.83;22.83;;;;;;;16.36;91.69;101087.91;5034852;28;20206;-74
2023/10/07 10:42:44;;;;;;;27.57;21.83;;;;;;;16.37;90.46;101081.44;5034760;28;20195;-74
2023/10/07 10:45:24;;;;;;;30.23;21.53;;;;;;;16.42;90.58;101091.69;5034603;28;20309;-74
2023/10/07 10:47:54;;;;;;;29.70;22.13;;;;;;;16.42;91.06;101084.44;5034386;28;20210;-74
2023/10/07 10:50:24;;;;;;;25.80;21.60;;;;;;;16.45;90.29;101089.47;5034653;28;20195;-74
2023/10/07 10:52:54;;;;;;;26.60;21.00;;;;;;;16.50;90.20;101089.75;5034995;28;20207;-74
2023/10/07 10:55:25;;;;;;;27.93;21.70;;;;;;;16.54;89.76;101095.59;5034474;28;20222;-74
2023/10/07 10:57:54;;;;;;;27.03;20.83;;;;;;;16.55;89.25;101073.81;5034579;28;20273;-73
2023/10/07 11:00:23;;;;;;;25.20;21.03;;;;;;;16.56;90.01;101072.78;5034475;28;20203;-73
2023/10/07 11:02:54;;;;;;;25.77;20.20;;;;;;;16.57;90.22;101071.75;5034599;28;20207;-73
2023/10/07 11:05:25;;;;;;;26.87;20.43;;;;;;;16.63;88.68;101080.97;5034049;28;20223;-73
2023/10/07 11:07:55;;;;;;;32.40;20.97;;;;;;;16.66;87.96;101070.59;5034298;28;20198;-73
2023/10/07 11:10:25;;;;;;;23.40;19.90;;;;;;;16.65;88.17;101068.91;5034294;28;20207;-73
2023/10/07 11:12:56;;;;;;;24.67;20.00;;;;;;;16.68;88.72;101057.72;5034253;28;20207;-73
2023/10/07 11:15:26;;;;;;;28.67;20.10;;;;;;;16.69;88.44;101070.22;5034454;28;20237;-73
2023/10/07 11:17:56;;;;;;;20.70;18.50;;;;;;;16.72;88.03;101063.59;5033032;28;20273;-73
2023/10/07 11:20:25;;;;;;;21.40;18.53;;;;;;;16.76;88.12;101061.34;5034665;28;20191;-73
2023/10/07 11:22:54;;;;;;;21.07;18.87;;;;;;;16.81;87.36;101062.44;5033983;28;20211;-73
2023/10/07 11:25:27;;;;;;;22.87;18.20;;;;;;;16.80;87.55;101076.16;5033676;28;20301;-73
2023/10/07 11:27:58;;;;;;;20.93;18.33;;;;;;;16.83;86.88;101068.47;5033973;28;20222;-73
2023/10/07 11:30:27;;;;;;;20.03;17.83;;;;;;;16.83;87.05;101076.59;5033983;28;20222;-73
2023/10/07 11:32:55;;;;;;;24.87;19.13;;;;;;;16.85;87.02;101065.59;5033580;28;20293;-73
2023/10/07 11:35:27;;;;;;;19.90;17.53;;;;;;;16.86;87.04;101069.97;5033432;28;20577;-73
2023/10/07 11:37:58;;;;;;;23.13;16.37;;;;;;;16.88;87.16;101063.34;5033900;28;20195;-74
2023/10/07 11:40:30;;;;;;;23.50;16.50;;;;;;;16.92;86.78;101058.41;5033793;28;20195;-74
2023/10/07 11:43:04;;;;;;;20.13;16.73;;;;;;;16.93;86.74;101060.03;5033787;28;20333;-74
2023/10/07 11:45:33;;;;;;;25.80;16.60;;;;;;;16.93;87.22;101055.47;5033743;28;20229;-74